createdAt,value
2019-05-29T00:00:42.127Z,92.51
2019-05-29T00:01:42.116Z,93.13
2019-05-29T00:02:42.131Z,92.93
2019-05-29T00:03:42.120Z,93.64
2019-05-29T00:04:42.086Z,93.74
2019-05-29T00:05:42.070Z,93.64
2019-05-29T00:06:42.062Z,94.05
2019-05-29T00:07:42.048Z,93.74
2019-05-29T00:08:42.064Z,93.74
2019-05-29T00:09:42.067Z,93.74
2019-05-29T00:10:42.015Z,93.64
2019-05-29T00:11:42.008Z,93.74
2019-05-29T00:12:42.000Z,93.64
2019-05-29T00:13:42.019Z,93.54
2019-05-29T00:14:41.971Z,94.05
2019-05-29T00:15:41.958Z,93.44
2019-05-29T00:16:41.970Z,93.74
2019-05-29T00:17:41.957Z,93.74
2019-05-29T00:18:41.952Z,94.26
2019-05-29T00:19:41.941Z,94.46
2019-05-29T00:20:41.907Z,94.26
2019-05-29T00:21:41.891Z,94.15
2019-05-29T00:22:41.882Z,94.26
2019-05-29T00:23:41.909Z,94.87
2019-05-29T00:24:41.856Z,94.30
2019-05-29T00:25:41.851Z,93.64
2019-05-29T00:26:41.833Z,92.76
2019-05-29T00:27:41.824Z,92.86
2019-05-29T00:28:41.837Z,92.97
2019-05-29T00:29:41.816Z,92.66
2019-05-29T00:30:41.825Z,92.76
2019-05-29T00:31:41.784Z,92.76
2019-05-29T00:32:41.766Z,92.35
2019-05-29T00:33:41.758Z,92.55
2019-05-29T00:34:41.783Z,91.63
2019-05-29T00:35:41.737Z,90.81
2019-05-29T00:36:41.725Z,91.28
2019-05-29T00:37:41.709Z,90.20
2019-05-29T00:38:41.701Z,90.20
2019-05-29T00:39:41.709Z,90.30
2019-05-29T00:40:41.679Z,90.81
2019-05-29T00:41:41.663Z,90.09
2019-05-29T00:42:41.660Z,90.30
2019-05-29T00:43:41.642Z,90.71
2019-05-29T00:44:41.655Z,90.20
2019-05-29T00:45:41.644Z,90.50
2019-05-29T00:46:41.610Z,91.22
2019-05-29T00:47:41.627Z,90.81
2019-05-29T00:48:41.587Z,91.42
2019-05-29T00:49:41.608Z,91.12
2019-05-29T00:50:41.562Z,91.02
2019-05-29T00:51:41.586Z,90.40
2019-05-29T00:52:41.546Z,89.99
2019-05-29T00:53:41.552Z,90.34
2019-05-29T00:54:41.529Z,88.56
2019-05-29T00:55:41.505Z,88.59
2019-05-29T00:56:41.524Z,89.31
2019-05-29T00:57:41.486Z,89.89
2019-05-29T00:58:41.624Z,89.93
2019-05-29T00:59:41.506Z,89.72
2019-05-29T01:00:41.459Z,90.03
2019-05-29T01:01:41.468Z,90.65
2019-05-29T01:02:41.479Z,90.34
2019-05-29T01:03:41.422Z,90.03
2019-05-29T01:04:41.433Z,89.62
2019-05-29T01:05:41.397Z,89.62
2019-05-29T01:06:41.387Z,89.93
2019-05-29T01:07:41.379Z,89.72
2019-05-29T01:08:41.390Z,89.93
2019-05-29T01:09:41.357Z,90.24
2019-05-29T01:10:41.341Z,90.85
2019-05-29T01:11:41.328Z,92.29
2019-05-29T01:12:41.346Z,91.51
2019-05-29T01:13:41.309Z,90.89
2019-05-29T01:14:49.749Z,91.20
2019-05-29T01:15:42.286Z,91.20
2019-05-29T01:16:41.279Z,91.88
2019-05-29T01:17:41.287Z,91.88
2019-05-29T01:18:41.257Z,92.08
2019-05-29T01:19:41.239Z,91.88
2019-05-29T01:20:41.234Z,91.88
2019-05-29T01:21:41.218Z,92.54
2019-05-29T01:22:41.229Z,92.91
2019-05-29T01:23:41.229Z,92.91
2019-05-29T01:24:41.188Z,92.33
2019-05-29T01:25:41.172Z,92.91
2019-05-29T01:26:41.233Z,92.74
2019-05-29T01:27:41.185Z,92.74
2019-05-29T01:28:41.161Z,93.16
2019-05-29T01:29:41.127Z,92.64
2019-05-29T01:30:41.121Z,92.44
2019-05-29T01:31:41.110Z,92.19
2019-05-29T01:32:41.095Z,92.13
2019-05-29T01:33:41.123Z,91.99
2019-05-29T01:34:41.070Z,92.13
2019-05-29T01:35:41.060Z,92.91
2019-05-29T01:36:41.051Z,93.05
2019-05-29T01:37:41.041Z,92.95
2019-05-29T01:38:41.044Z,92.64
2019-05-29T01:39:41.015Z,93.46
2019-05-29T01:40:41.005Z,92.54
2019-05-29T01:41:41.020Z,92.54
2019-05-29T01:42:40.984Z,93.05
2019-05-29T01:43:40.988Z,92.44
2019-05-29T01:44:40.985Z,92.74
2019-05-29T01:45:40.949Z,93.36
2019-05-29T01:46:40.939Z,93.46
2019-05-29T01:47:40.932Z,93.20
2019-05-29T01:48:40.915Z,93.26
2019-05-29T01:49:40.932Z,93.20
2019-05-29T01:50:40.895Z,92.69
2019-05-29T01:51:40.880Z,93.36
2019-05-29T01:52:40.869Z,92.79
2019-05-29T01:53:40.911Z,92.89
2019-05-29T01:54:40.881Z,93.30
2019-05-29T01:55:40.833Z,93.40
2019-05-29T01:56:40.828Z,92.69
2019-05-29T01:57:40.814Z,92.83
2019-05-29T01:58:40.819Z,93.24
2019-05-29T01:59:40.847Z,92.52
2019-05-29T02:00:40.792Z,92.83
2019-05-29T02:01:40.778Z,92.83
2019-05-29T02:02:40.760Z,93.24
2019-05-29T02:03:40.747Z,92.42
2019-05-29T02:04:40.800Z,92.93
2019-05-29T02:05:40.725Z,92.83
2019-05-29T02:06:40.715Z,92.93
2019-05-29T02:07:40.704Z,92.63
2019-05-29T02:08:40.713Z,92.73
2019-05-29T02:09:40.705Z,93.04
2019-05-29T02:10:40.667Z,93.24
2019-05-29T02:11:40.709Z,93.55
2019-05-29T02:12:40.654Z,93.70
2019-05-29T02:13:40.637Z,94.01
2019-05-29T02:14:40.626Z,94.01
2019-05-29T02:15:40.635Z,93.86
2019-05-29T02:16:40.600Z,93.80
2019-05-29T02:17:40.592Z,94.01
2019-05-29T02:18:40.579Z,93.90
2019-05-29T02:19:40.642Z,93.70
2019-05-29T02:20:40.623Z,94.62
2019-05-29T02:21:40.551Z,94.62
2019-05-29T02:22:40.535Z,94.42
2019-05-29T02:23:40.527Z,94.56
2019-05-29T02:24:40.536Z,94.87
2019-05-29T02:25:40.525Z,94.77
2019-05-29T02:26:40.489Z,95.08
2019-05-29T02:27:40.484Z,94.98
2019-05-29T02:28:40.468Z,94.77
2019-05-29T02:29:40.462Z,94.98
2019-05-29T02:30:40.497Z,94.98
2019-05-29T02:31:40.440Z,94.98
2019-05-29T02:32:40.454Z,95.18
2019-05-29T02:33:40.413Z,95.18
2019-05-29T02:34:40.402Z,94.98
2019-05-29T02:35:40.397Z,94.60
2019-05-29T02:36:40.406Z,94.71
2019-05-29T02:37:40.369Z,94.92
2019-05-29T02:38:40.363Z,94.92
2019-05-29T02:39:40.344Z,95.02
2019-05-29T02:40:40.336Z,95.43
2019-05-29T02:41:40.355Z,94.92
2019-05-29T02:42:40.312Z,95.23
2019-05-29T02:43:40.300Z,95.64
2019-05-29T02:44:40.317Z,95.33
2019-05-29T02:45:53.641Z,95.12
2019-05-29T02:46:41.302Z,96.15
2019-05-29T02:47:40.259Z,95.74
2019-05-29T02:48:40.450Z,96.46
2019-05-29T02:49:40.325Z,96.05
2019-05-29T02:50:40.228Z,96.05
2019-05-29T02:51:40.325Z,96.05
2019-05-29T02:52:40.296Z,95.84
2019-05-29T02:53:40.438Z,96.15
2019-05-29T02:54:40.202Z,95.64
2019-05-29T02:55:40.167Z,95.68
2019-05-29T02:56:42.650Z,95.84
2019-05-29T02:57:40.145Z,95.64
2019-05-29T02:58:40.153Z,96.41
2019-05-29T02:59:40.122Z,96.09
2019-05-29T03:00:40.136Z,96.41
2019-05-29T03:01:40.125Z,96.50
2019-05-29T03:02:40.092Z,96.30
2019-05-29T03:03:40.384Z,95.89
2019-05-29T03:04:40.066Z,95.89
2019-05-29T03:05:40.072Z,95.89
2019-05-29T03:06:40.075Z,96.09
2019-05-29T03:07:40.030Z,96.20
2019-05-29T03:08:40.027Z,96.09
2019-05-29T03:09:40.014Z,96.71
2019-05-29T03:10:39.996Z,96.50
2019-05-29T03:11:40.037Z,96.50
2019-05-29T03:12:39.980Z,96.75
2019-05-29T03:13:39.995Z,96.75
2019-05-29T03:14:39.955Z,96.34
2019-05-29T03:15:39.943Z,96.45
2019-05-29T03:16:39.950Z,96.45
2019-05-29T03:17:39.922Z,96.75
2019-05-29T03:18:39.902Z,96.75
2019-05-29T03:19:39.897Z,96.55
2019-05-29T03:20:39.912Z,96.55
2019-05-29T03:21:39.894Z,96.75
2019-05-29T03:22:39.880Z,96.75
2019-05-29T03:23:39.846Z,96.45
2019-05-29T03:24:39.843Z,96.75
2019-05-29T03:25:39.821Z,96.34
2019-05-29T03:26:39.833Z,96.75
2019-05-29T03:27:39.814Z,96.66
2019-05-29T03:28:39.787Z,96.75
2019-05-29T03:29:39.778Z,96.45
2019-05-29T03:30:45.668Z,96.66
2019-05-29T03:31:47.358Z,96.96
2019-05-29T03:32:47.154Z,96.45
2019-05-29T03:33:48.810Z,96.75
2019-05-29T03:34:46.089Z,96.70
2019-05-29T03:35:47.426Z,97.27
2019-05-29T03:36:47.423Z,97.21
2019-05-29T03:37:40.684Z,97.31
2019-05-29T03:38:39.700Z,97.27
2019-05-29T03:39:39.685Z,97.38
2019-05-29T03:40:39.659Z,97.38
2019-05-29T03:41:39.636Z,97.58
2019-05-29T03:42:39.627Z,97.11
2019-05-29T03:43:39.619Z,97.11
2019-05-29T03:44:39.650Z,97.31
2019-05-29T03:45:39.592Z,97.31
2019-05-29T03:46:45.219Z,97.52
2019-05-29T03:47:40.594Z,97.27
2019-05-29T03:48:39.579Z,97.38
2019-05-29T03:49:39.568Z,96.75
2019-05-29T03:50:39.559Z,96.96
2019-05-29T03:51:39.533Z,97.38
2019-05-29T03:52:39.510Z,96.96
2019-05-29T03:53:39.498Z,97.06
2019-05-29T03:54:39.486Z,97.06
2019-05-29T03:55:39.523Z,96.86
2019-05-29T03:56:39.465Z,97.17
2019-05-29T03:57:39.456Z,96.75
2019-05-29T03:58:39.464Z,96.75
2019-05-29T03:59:39.434Z,97.02
2019-05-29T04:00:46.222Z,97.02
2019-05-29T04:01:40.406Z,96.71
2019-05-29T04:02:39.411Z,97.02
2019-05-29T04:03:39.404Z,97.02
2019-05-29T04:04:39.374Z,97.02
2019-05-29T04:05:39.363Z,96.88
2019-05-29T04:06:39.350Z,97.33
2019-05-29T04:07:39.361Z,96.97
2019-05-29T04:08:39.329Z,97.08
2019-05-29T04:09:39.317Z,97.18
2019-05-29T04:10:39.800Z,97.39
2019-05-29T04:11:39.296Z,97.33
2019-05-29T04:12:39.314Z,97.53
2019-05-29T04:13:39.435Z,97.33
2019-05-29T04:14:39.259Z,97.43
2019-05-29T04:15:39.251Z,97.33
2019-05-29T04:16:58.218Z,97.23
2019-05-29T04:17:40.223Z,97.13
2019-05-29T04:18:39.233Z,97.13
2019-05-29T04:19:39.203Z,97.23
2019-05-29T04:20:39.224Z,97.23
2019-05-29T04:21:39.205Z,96.81
2019-05-29T04:22:39.173Z,96.71
2019-05-29T04:23:39.205Z,96.71
2019-05-29T04:24:39.168Z,96.71
2019-05-29T04:25:42.525Z,96.86
2019-05-29T04:26:39.123Z,96.50
2019-05-29T04:27:39.119Z,96.86
2019-05-29T04:28:39.207Z,96.86
2019-05-29T04:29:39.114Z,96.50
2019-05-29T04:30:39.547Z,96.75
2019-05-29T04:31:39.499Z,96.50
2019-05-29T04:32:39.077Z,96.45
2019-05-29T04:33:39.085Z,96.61
2019-05-29T04:34:39.933Z,96.66
2019-05-29T04:35:39.882Z,96.41
2019-05-29T04:36:39.186Z,95.93
2019-05-29T04:37:39.770Z,96.30
2019-05-29T04:38:40.401Z,96.20
2019-05-29T04:39:39.194Z,96.30
2019-05-29T04:40:39.591Z,96.20
2019-05-29T04:41:39.338Z,96.55
2019-05-29T04:42:40.016Z,95.99
2019-05-29T04:43:39.857Z,95.68
2019-05-29T04:44:41.005Z,94.85
2019-05-29T04:45:40.099Z,95.17
2019-05-29T04:46:40.513Z,94.65
2019-05-29T04:47:39.625Z,95.17
2019-05-29T04:48:40.323Z,95.06
2019-05-29T04:49:39.845Z,95.06
2019-05-29T04:50:40.689Z,95.06
2019-05-29T04:51:39.929Z,94.76
2019-05-29T04:52:40.240Z,94.76
2019-05-29T04:53:39.820Z,94.85
2019-05-29T04:54:40.226Z,94.81
2019-05-29T04:55:39.035Z,93.68
2019-05-29T04:56:39.146Z,94.03
2019-05-29T04:57:39.248Z,93.99
2019-05-29T04:58:39.095Z,93.88
2019-05-29T04:59:39.258Z,93.48
2019-05-29T05:00:39.403Z,93.16
2019-05-29T05:01:39.314Z,92.03
2019-05-29T05:02:39.413Z,92.34
2019-05-29T05:03:39.442Z,91.42
2019-05-29T05:04:39.411Z,90.90
2019-05-29T05:05:39.550Z,90.96
2019-05-29T05:06:39.485Z,91.89
2019-05-29T05:07:39.647Z,92.20
2019-05-29T05:08:39.660Z,91.33
2019-05-29T05:09:39.622Z,91.27
2019-05-29T05:10:40.615Z,91.44
2019-05-29T05:11:39.635Z,90.51
2019-05-29T05:12:39.901Z,90.81
2019-05-29T05:13:39.701Z,90.61
2019-05-29T05:14:39.612Z,90.16
2019-05-29T05:15:39.970Z,89.70
2019-05-29T05:16:38.568Z,89.42
2019-05-29T05:17:38.573Z,87.63
2019-05-29T05:18:38.538Z,85.19
2019-05-29T05:19:38.523Z,83.96
2019-05-29T05:20:38.550Z,83.92
2019-05-29T05:21:38.504Z,80.98
2019-05-29T05:22:38.508Z,79.57
2019-05-29T05:23:38.484Z,77.86
2019-05-29T05:24:42.149Z,76.81
2019-05-29T05:25:40.817Z,75.13
2019-05-29T05:26:38.542Z,73.71
2019-05-29T05:27:38.503Z,73.40
2019-05-29T05:28:38.643Z,73.13
2019-05-29T05:29:38.991Z,73.44
2019-05-29T05:30:38.561Z,74.22
2019-05-29T05:31:38.580Z,73.40
2019-05-29T05:32:38.867Z,72.86
2019-05-29T05:33:38.673Z,71.97
2019-05-29T05:34:38.785Z,73.30
2019-05-29T05:35:38.835Z,73.19
2019-05-29T05:36:38.870Z,73.50
2019-05-29T05:37:38.892Z,73.67
2019-05-29T05:38:38.805Z,72.28
2019-05-29T05:39:39.036Z,73.60
2019-05-29T05:40:41.365Z,72.82
2019-05-29T05:41:39.003Z,74.46
2019-05-29T05:42:38.991Z,73.81
2019-05-29T05:43:38.964Z,73.60
2019-05-29T05:44:39.087Z,72.89
2019-05-29T05:45:39.216Z,73.30
2019-05-29T05:46:39.210Z,73.71
2019-05-29T05:47:50.112Z,73.71
2019-05-29T05:48:39.282Z,73.10
2019-05-29T05:49:39.422Z,72.82
2019-05-29T05:50:39.112Z,73.27
2019-05-29T05:51:42.590Z,72.69
2019-05-29T05:52:39.483Z,72.34
2019-05-29T05:53:38.143Z,73.57
2019-05-29T05:54:38.157Z,76.43
2019-05-29T05:55:38.140Z,73.81
2019-05-29T05:56:38.109Z,74.80
2019-05-29T05:57:38.131Z,74.83
2019-05-29T05:58:38.107Z,72.48
2019-05-29T05:59:38.072Z,72.75
2019-05-29T06:00:38.115Z,71.97
2019-05-29T06:01:38.049Z,73.77
2019-05-29T06:02:38.241Z,72.07
2019-05-29T06:03:38.048Z,73.60
2019-05-29T06:04:38.030Z,71.80
2019-05-29T06:05:38.277Z,70.89
2019-05-29T06:06:38.175Z,69.83
2019-05-29T06:07:38.265Z,71.70
2019-05-29T06:08:38.136Z,70.54
2019-05-29T06:09:38.216Z,70.24
2019-05-29T06:10:38.173Z,69.80
2019-05-29T06:11:38.299Z,70.17
2019-05-29T06:12:38.642Z,69.26
2019-05-29T06:13:38.389Z,70.38
2019-05-29T06:14:38.479Z,68.85
2019-05-29T06:15:38.466Z,69.12
2019-05-29T06:16:38.652Z,68.71
2019-05-29T06:17:38.755Z,70.28
2019-05-29T06:18:38.515Z,69.36
2019-05-29T06:19:38.980Z,70.24
2019-05-29T06:20:39.017Z,65.97
2019-05-29T06:21:38.810Z,68.85
2019-05-29T06:22:39.123Z,69.39
2019-05-29T06:23:38.880Z,71.02
2019-05-29T06:24:38.818Z,68.92
2019-05-29T06:25:39.987Z,68.65
2019-05-29T06:26:38.874Z,68.71
2019-05-29T06:27:39.047Z,65.43
2019-05-29T06:28:37.745Z,64.00
2019-05-29T06:29:37.750Z,65.89
2019-05-29T06:30:39.342Z,65.56
2019-05-29T06:31:37.743Z,65.49
2019-05-29T06:32:37.741Z,65.95
2019-05-29T06:33:37.691Z,67.25
2019-05-29T06:34:37.680Z,68.30
2019-05-29T06:35:37.680Z,66.33
2019-05-29T06:36:37.990Z,67.05
2019-05-29T06:37:37.649Z,67.22
2019-05-29T06:38:37.698Z,64.78
2019-05-29T06:39:37.718Z,65.52
2019-05-29T06:40:38.297Z,67.52
2019-05-29T06:41:37.827Z,64.75
2019-05-29T06:42:37.867Z,65.12
2019-05-29T06:43:37.877Z,64.00
2019-05-29T06:44:39.421Z,65.63
2019-05-29T06:45:37.871Z,63.57
2019-05-29T06:46:38.320Z,65.47
2019-05-29T06:47:38.622Z,62.01
2019-05-29T06:48:46.272Z,64.89
2019-05-29T06:49:38.505Z,63.97
2019-05-29T06:50:37.505Z,64.18
2019-05-29T06:51:37.505Z,62.58
2019-05-29T06:52:37.503Z,63.70
2019-05-29T06:53:37.803Z,63.06
2019-05-29T06:54:37.832Z,62.82
2019-05-29T06:55:37.909Z,61.37
2019-05-29T06:56:37.782Z,62.04
2019-05-29T06:57:38.145Z,61.91
2019-05-29T06:58:38.103Z,60.46
2019-05-29T06:59:38.225Z,61.71
2019-05-29T07:00:39.295Z,62.59
2019-05-29T07:01:37.474Z,60.76
2019-05-29T07:02:38.509Z,61.24
2019-05-29T07:03:37.706Z,61.24
2019-05-29T07:04:38.283Z,60.86
2019-05-29T07:05:37.732Z,60.94
2019-05-29T07:06:38.521Z,57.81
2019-05-29T07:07:38.242Z,58.91
2019-05-29T07:08:40.022Z,60.97
2019-05-29T07:09:38.845Z,59.82
2019-05-29T07:10:38.501Z,59.03
2019-05-29T07:11:37.259Z,58.80
2019-05-29T07:12:38.338Z,58.37
2019-05-29T07:13:40.408Z,57.68
2019-05-29T07:14:38.174Z,58.50
2019-05-29T07:15:38.606Z,57.46
2019-05-29T07:16:47.636Z,56.34
2019-05-29T07:17:38.638Z,58.06
2019-05-29T07:18:38.479Z,57.91
2019-05-29T07:19:49.004Z,56.16
2019-05-29T07:20:38.506Z,56.18
2019-05-29T07:21:37.153Z,58.65
2019-05-29T07:22:37.202Z,61.01
2019-05-29T07:23:37.149Z,57.38
2019-05-29T07:24:37.115Z,61.32
2019-05-29T07:25:37.101Z,59.84
2019-05-29T07:26:37.125Z,58.01
2019-05-29T07:27:37.079Z,58.20
2019-05-29T07:28:37.327Z,59.89
2019-05-29T07:29:37.077Z,57.93
2019-05-29T07:30:37.337Z,57.81
2019-05-29T07:31:37.061Z,58.80
2019-05-29T07:32:38.711Z,57.35
2019-05-29T07:33:37.072Z,58.39
2019-05-29T07:34:51.303Z,56.87
2019-05-29T07:35:37.992Z,55.96
2019-05-29T07:36:37.943Z,58.01
2019-05-29T07:37:37.672Z,58.18
2019-05-29T07:38:37.725Z,58.42
2019-05-29T07:39:37.374Z,57.68
2019-05-29T07:40:38.421Z,58.42
2019-05-29T07:41:37.445Z,56.18
2019-05-29T07:42:36.921Z,56.01
2019-05-29T07:43:37.608Z,58.01
2019-05-29T07:44:37.998Z,58.49
2019-05-29T07:45:37.810Z,55.85
2019-05-29T07:46:37.898Z,57.40
2019-05-29T07:47:38.210Z,58.31
2019-05-29T07:48:38.357Z,56.39
2019-05-29T07:49:39.845Z,57.48
2019-05-29T07:50:38.055Z,57.37
2019-05-29T07:51:38.037Z,58.29
2019-05-29T07:52:36.798Z,58.59
2019-05-29T07:53:36.814Z,55.85
2019-05-29T07:54:36.830Z,56.46
2019-05-29T07:55:36.773Z,56.16
2019-05-29T07:56:36.751Z,56.95
2019-05-29T07:57:36.800Z,56.54
2019-05-29T07:58:36.770Z,55.96
2019-05-29T07:59:36.719Z,58.39
2019-05-29T08:00:56.377Z,59.65
2019-05-29T08:01:38.649Z,55.75
2019-05-29T08:02:36.686Z,57.70
2019-05-29T08:03:36.697Z,58.89
2019-05-29T08:04:36.661Z,54.03
2019-05-29T08:05:36.659Z,56.46
2019-05-29T08:06:36.646Z,57.95
2019-05-29T08:07:36.653Z,54.00
2019-05-29T08:08:36.647Z,54.91
2019-05-29T08:09:36.607Z,54.94
2019-05-29T08:10:36.593Z,55.47
2019-05-29T08:11:36.584Z,54.76
2019-05-29T08:12:41.509Z,55.80
2019-05-29T08:13:37.582Z,54.56
2019-05-29T08:14:36.572Z,54.23
2019-05-29T08:15:51.995Z,53.75
2019-05-29T08:16:37.529Z,56.02
2019-05-29T08:17:36.517Z,55.62
2019-05-29T08:18:36.546Z,56.53
2019-05-29T08:19:36.521Z,55.75
2019-05-29T08:20:36.481Z,57.21
2019-05-29T08:21:36.471Z,52.97
2019-05-29T08:22:36.459Z,54.96
2019-05-29T08:23:36.462Z,52.36
2019-05-29T08:24:36.447Z,52.46
2019-05-29T08:25:36.425Z,54.05
2019-05-29T08:26:36.415Z,55.65
2019-05-29T08:27:36.425Z,57.45
2019-05-29T08:28:36.392Z,56.08
2019-05-29T08:29:36.381Z,55.75
2019-05-29T08:30:36.381Z,55.75
2019-05-29T08:31:36.358Z,54.84
2019-05-29T08:32:36.373Z,53.55
2019-05-29T08:33:36.336Z,54.11
2019-05-29T08:34:36.335Z,55.63
2019-05-29T08:35:36.337Z,56.16
2019-05-29T08:36:36.310Z,58.45
2019-05-29T08:37:36.296Z,60.05
2019-05-29T08:38:36.281Z,60.76
2019-05-29T08:39:37.027Z,60.35
2019-05-29T08:40:36.256Z,56.87
2019-05-29T08:41:36.252Z,57.62
2019-05-29T08:42:36.264Z,56.08
2019-05-29T08:43:36.246Z,53.75
2019-05-29T08:44:36.232Z,57.04
2019-05-29T08:45:36.240Z,54.96
2019-05-29T08:46:36.218Z,56.35
2019-05-29T08:47:36.181Z,52.74
2019-05-29T08:48:36.199Z,51.45
2019-05-29T08:49:36.159Z,52.03
2019-05-29T08:50:36.149Z,52.74
2019-05-29T08:51:36.134Z,55.27
2019-05-29T08:52:36.126Z,56.93
2019-05-29T08:53:36.155Z,51.86
2019-05-29T08:54:36.122Z,51.91
2019-05-29T08:55:36.113Z,53.83
2019-05-29T08:56:36.078Z,52.69
2019-05-29T08:57:36.069Z,51.89
2019-05-29T08:58:37.501Z,52.84
2019-05-29T08:59:36.106Z,53.78
2019-05-29T09:00:36.034Z,51.96
2019-05-29T09:01:36.049Z,51.93
2019-05-29T09:02:36.033Z,52.16
2019-05-29T09:03:36.001Z,51.07
2019-05-29T09:04:35.989Z,51.78
2019-05-29T09:05:36.028Z,51.89
2019-05-29T09:06:35.969Z,51.83
2019-05-29T09:07:35.981Z,52.86
2019-05-29T09:08:35.947Z,57.40
2019-05-29T09:09:35.937Z,58.67
2019-05-29T09:10:35.945Z,59.82
2019-05-29T09:11:35.908Z,58.29
2019-05-29T09:12:35.902Z,60.40
2019-05-29T09:13:35.941Z,58.72
2019-05-29T09:14:35.890Z,58.22
2019-05-29T09:15:35.887Z,58.18
2019-05-29T09:16:35.855Z,59.27
2019-05-29T09:17:35.900Z,55.85
2019-05-29T09:18:35.842Z,56.31
2019-05-29T09:19:35.851Z,55.44
2019-05-29T09:20:57.735Z,56.05
2019-05-29T09:21:36.795Z,53.80
2019-05-29T09:22:35.796Z,52.16
2019-05-29T09:23:35.817Z,55.52
2019-05-29T09:24:35.765Z,51.98
2019-05-29T09:25:35.752Z,52.08
2019-05-29T09:26:35.743Z,54.08
2019-05-29T09:27:35.763Z,53.38
2019-05-29T09:28:35.754Z,53.17
2019-05-29T09:29:35.707Z,52.08
2019-05-29T09:30:35.725Z,53.88
2019-05-29T09:31:35.684Z,52.74
2019-05-29T09:32:49.479Z,53.58
2019-05-29T09:33:36.696Z,52.67
2019-05-29T09:34:35.662Z,52.46
2019-05-29T09:35:35.642Z,55.09
2019-05-29T09:36:35.633Z,52.28
2019-05-29T09:37:35.619Z,53.70
2019-05-29T09:38:35.606Z,54.99
2019-05-29T09:39:35.630Z,55.07
2019-05-29T09:40:35.585Z,54.21
2019-05-29T09:41:35.573Z,52.67
2019-05-29T09:42:35.570Z,53.65
2019-05-29T09:43:35.554Z,53.80
2019-05-29T09:44:39.239Z,53.38
2019-05-29T09:45:35.527Z,52.89
2019-05-29T09:46:35.518Z,53.19
2019-05-29T09:47:35.507Z,56.00
2019-05-29T09:48:48.772Z,55.67
2019-05-29T09:49:36.485Z,51.81
2019-05-29T09:50:49.438Z,50.80
2019-05-29T09:51:36.475Z,50.47
2019-05-29T09:52:35.523Z,49.96
2019-05-29T09:53:35.470Z,51.86
2019-05-29T09:54:36.164Z,49.84
2019-05-29T09:55:35.416Z,48.88
2019-05-29T09:56:35.449Z,50.42
2019-05-29T09:57:35.392Z,52.74
2019-05-29T09:58:35.529Z,50.90
2019-05-29T09:59:35.371Z,52.19
2019-05-29T10:00:35.534Z,50.65
2019-05-29T10:01:35.358Z,49.58
2019-05-29T10:02:35.375Z,51.23
2019-05-29T10:03:35.340Z,51.43
2019-05-29T10:04:35.353Z,50.72
2019-05-29T10:05:35.303Z,52.03
2019-05-29T10:06:35.294Z,49.58
2019-05-29T10:07:35.282Z,51.00
2019-05-29T10:08:35.298Z,51.56
2019-05-29T10:09:35.258Z,52.06
2019-05-29T10:10:35.269Z,53.30
2019-05-29T10:11:35.236Z,51.40
2019-05-29T10:12:35.240Z,50.29
2019-05-29T10:13:35.212Z,51.81
2019-05-29T10:14:35.234Z,53.20
2019-05-29T10:15:35.200Z,51.86
2019-05-29T10:16:35.180Z,51.96
2019-05-29T10:17:35.200Z,50.67
2019-05-29T10:18:35.156Z,50.01
2019-05-29T10:19:35.171Z,51.83
2019-05-29T10:20:35.146Z,51.50
2019-05-29T10:21:40.630Z,50.87
2019-05-29T10:22:36.125Z,49.94
2019-05-29T10:23:36.143Z,53.27
2019-05-29T10:24:35.089Z,49.99
2019-05-29T10:25:35.157Z,50.87
2019-05-29T10:26:35.096Z,51.25
2019-05-29T10:27:35.056Z,52.74
2019-05-29T10:28:50.092Z,53.25
2019-05-29T10:29:36.038Z,52.94
2019-05-29T10:30:35.032Z,51.23
2019-05-29T10:31:35.034Z,50.50
2019-05-29T10:32:35.001Z,50.30
2019-05-29T10:33:35.041Z,50.85
2019-05-29T10:34:34.995Z,49.74
2019-05-29T10:35:34.968Z,49.04
2019-05-29T10:36:34.965Z,49.16
2019-05-29T10:37:34.942Z,48.53
2019-05-29T10:38:34.956Z,48.35
2019-05-29T10:39:34.942Z,47.74
2019-05-29T10:40:34.947Z,47.52
2019-05-29T10:41:34.905Z,49.87
2019-05-29T10:42:34.923Z,49.46
2019-05-29T10:43:35.169Z,50.39
2019-05-29T10:44:34.894Z,49.33
2019-05-29T10:45:34.852Z,48.22
2019-05-29T10:46:34.844Z,49.82
2019-05-29T10:47:34.861Z,48.00
2019-05-29T10:48:34.824Z,48.93
2019-05-29T10:49:34.826Z,48.93
2019-05-29T10:50:34.798Z,49.11
2019-05-29T10:51:34.792Z,48.10
2019-05-29T10:52:34.795Z,49.52
2019-05-29T10:53:34.788Z,48.79
2019-05-29T10:54:34.753Z,48.66
2019-05-29T10:55:34.739Z,49.67
2019-05-29T10:56:34.746Z,49.85
2019-05-29T10:57:34.717Z,48.46
2019-05-29T10:58:47.910Z,50.45
2019-05-29T10:59:35.788Z,51.16
2019-05-29T11:00:38.352Z,46.02
2019-05-29T11:01:34.675Z,46.04
2019-05-29T11:02:34.694Z,46.29
2019-05-29T11:03:34.657Z,45.89
2019-05-29T11:04:34.638Z,46.01
2019-05-29T11:05:34.642Z,48.21
2019-05-29T11:06:34.624Z,48.10
2019-05-29T11:07:34.608Z,48.71
2019-05-29T11:08:34.600Z,50.82
2019-05-29T11:09:43.807Z,50.60
2019-05-29T11:10:35.591Z,47.50
2019-05-29T11:11:34.565Z,47.40
2019-05-29T11:12:34.572Z,49.21
2019-05-29T11:13:34.538Z,47.42
2019-05-29T11:14:34.552Z,49.74
2019-05-29T11:15:34.515Z,49.52
2019-05-29T11:16:34.503Z,49.01
2019-05-29T11:17:34.523Z,48.91
2019-05-29T11:18:34.480Z,48.91
2019-05-29T11:19:34.469Z,47.02
2019-05-29T11:20:34.549Z,47.64
2019-05-29T11:21:34.445Z,49.76
2019-05-29T11:22:34.435Z,48.55
2019-05-29T11:23:34.427Z,45.83
2019-05-29T11:24:34.428Z,47.04
2019-05-29T11:25:34.423Z,50.45
2019-05-29T11:26:34.414Z,45.98
2019-05-29T11:27:34.390Z,48.91
2019-05-29T11:28:34.392Z,47.60
2019-05-29T11:29:34.357Z,48.10
2019-05-29T11:30:34.346Z,45.68
2019-05-29T11:31:34.357Z,44.19
2019-05-29T11:32:34.323Z,44.29
2019-05-29T11:33:34.312Z,46.92
2019-05-29T11:34:34.338Z,44.31
2019-05-29T11:35:34.297Z,46.13
2019-05-29T11:36:34.303Z,45.50
2019-05-29T11:37:34.271Z,49.62
2019-05-29T11:38:34.281Z,48.93
2019-05-29T11:39:34.250Z,49.01
2019-05-29T11:40:34.319Z,46.79
2019-05-29T11:41:34.260Z,49.54
2019-05-29T11:42:34.217Z,48.81
2019-05-29T11:43:34.198Z,47.78
2019-05-29T11:44:34.205Z,47.98
2019-05-29T11:45:35.609Z,46.04
2019-05-29T11:46:34.165Z,47.43
2019-05-29T11:47:34.277Z,45.72
2019-05-29T11:48:34.169Z,45.29
2019-05-29T11:49:34.137Z,44.81
2019-05-29T11:50:34.124Z,45.64
2019-05-29T11:51:34.137Z,47.13
2019-05-29T11:52:42.821Z,47.33
2019-05-29T11:53:35.111Z,46.25
2019-05-29T11:54:34.077Z,46.77
2019-05-29T11:55:34.068Z,48.00
2019-05-29T11:56:34.054Z,46.09
2019-05-29T11:57:34.048Z,45.78
2019-05-29T11:58:34.066Z,46.79
2019-05-29T11:59:34.019Z,47.14
2019-05-29T12:00:34.039Z,45.45
2019-05-29T12:01:49.214Z,46.86
2019-05-29T12:02:34.999Z,45.62
2019-05-29T12:03:33.996Z,48.02
2019-05-29T12:04:33.985Z,45.81
2019-05-29T12:05:33.952Z,47.09
2019-05-29T12:06:33.947Z,46.09
2019-05-29T12:07:33.932Z,45.98
2019-05-29T12:08:33.991Z,45.97
2019-05-29T12:09:34.902Z,46.87
2019-05-29T12:10:33.896Z,46.19
2019-05-29T12:11:33.885Z,45.50
2019-05-29T12:12:33.877Z,46.71
2019-05-29T12:13:33.871Z,47.42
2019-05-29T12:14:33.879Z,50.52
2019-05-29T12:15:33.853Z,47.47
2019-05-29T12:16:33.827Z,48.98
2019-05-29T12:17:33.887Z,48.96
2019-05-29T12:18:33.838Z,47.82
2019-05-29T12:19:33.795Z,46.43
2019-05-29T12:20:33.796Z,46.13
2019-05-29T12:21:33.779Z,47.82
2019-05-29T12:22:33.760Z,46.11
2019-05-29T12:23:33.766Z,46.11
2019-05-29T12:24:33.739Z,46.51
2019-05-29T12:25:33.756Z,45.70
2019-05-29T12:26:33.742Z,44.29
2019-05-29T12:27:33.709Z,46.01
2019-05-29T12:28:33.695Z,45.93
2019-05-29T12:29:33.697Z,44.84
2019-05-29T12:30:33.670Z,48.07
2019-05-29T12:31:33.659Z,45.75
2019-05-29T12:32:33.677Z,42.70
2019-05-29T12:33:33.638Z,45.12
2019-05-29T12:34:33.626Z,43.23
2019-05-29T12:35:33.615Z,44.46
2019-05-29T12:36:33.629Z,47.06
2019-05-29T12:37:33.592Z,45.93
2019-05-29T12:38:33.594Z,45.83
2019-05-29T12:39:33.593Z,47.44
2019-05-29T12:40:33.588Z,44.42
2019-05-29T12:41:33.549Z,44.13
2019-05-29T12:42:33.538Z,44.15
2019-05-29T12:43:33.526Z,45.77
2019-05-29T12:44:33.579Z,45.77
2019-05-29T12:45:33.537Z,45.54
2019-05-29T12:46:33.499Z,45.65
2019-05-29T12:47:33.481Z,44.54
2019-05-29T12:48:33.473Z,44.23
2019-05-29T12:49:33.490Z,45.95
2019-05-29T12:50:34.567Z,43.52
2019-05-29T12:51:33.562Z,46.25
2019-05-29T12:52:33.434Z,46.13